Playa Del Rey, California
Current Conditions -  °F | °C
As of 5:53 PM on Monday 24 Nov 2014 (Local Time) from KLAX Reporting Station
Clear Clear  
Wind Chill: 69°   Ceiling: Unl
Heat Index: 69°   Visibility: 10mi
Dew Point: 42°   Wind: 5mph
Humidity: 38%   Direction: 210°SSW
Pressure: 30.21"   Gusts: NA
Location:  33.95°N, 118.44°W
Report Text: KLAX 250153Z 21004KT 10SM CLR 21/06 A3021 RMK AO2 SLP231 T02060056 $
Loading
Personal Weather Stations






























Interactive Weather Map New forecast layout! Learn more

10-Day Weather Forecast

Advertisements
Track Severe Weather on mobile